createdAt,value
2018-04-08T00:01:06.912Z,79.00
2018-04-08T00:02:47.718Z,78.80
2018-04-08T00:04:26.680Z,78.50
2018-04-08T00:06:04.854Z,78.50
2018-04-08T00:07:43.320Z,78.40
2018-04-08T00:09:21.218Z,77.50
2018-04-08T00:10:59.122Z,77.10
2018-04-08T00:12:38.851Z,77.20
2018-04-08T00:14:17.262Z,77.20
2018-04-08T00:15:55.292Z,77.20
2018-04-08T00:17:33.114Z,76.70
2018-04-08T00:19:11.760Z,76.80
2018-04-08T00:20:50.258Z,76.40
2018-04-08T00:22:29.643Z,76.30
2018-04-08T00:24:07.728Z,76.20
2018-04-08T00:25:47.032Z,76.40
2018-04-08T00:27:26.210Z,78.60
2018-04-08T00:29:03.929Z,78.60
2018-04-08T00:30:43.552Z,75.60
2018-04-08T00:32:22.346Z,75.40
2018-04-08T00:34:01.278Z,75.30
2018-04-08T00:35:40.177Z,74.60
2018-04-08T00:37:20.354Z,74.10
2018-04-08T00:38:59.101Z,73.50
2018-04-08T00:40:37.549Z,72.90
2018-04-08T00:42:17.558Z,72.10
2018-04-08T00:43:56.270Z,72.10
2018-04-08T00:45:35.342Z,73.30
2018-04-08T00:47:32.378Z,72.30
2018-04-08T00:49:11.419Z,72.10
2018-04-08T00:50:53.035Z,72.00
2018-04-08T00:52:31.192Z,71.80
2018-04-08T00:54:34.601Z,71.70
2018-04-08T00:56:12.186Z,71.80
2018-04-08T00:57:50.964Z,71.60
2018-04-08T00:59:29.606Z,71.90
2018-04-08T01:01:08.907Z,71.40
2018-04-08T01:02:46.524Z,71.40
2018-04-08T01:04:24.762Z,72.10
2018-04-08T01:06:02.157Z,72.10
2018-04-08T01:07:39.675Z,71.90
2018-04-08T01:09:17.545Z,71.50
2018-04-08T01:10:55.198Z,71.60
2018-04-08T01:12:33.238Z,71.20
2018-04-08T01:14:11.365Z,71.80
2018-04-08T01:15:49.773Z,72.00
2018-04-08T01:17:27.960Z,72.00
2018-04-08T01:19:05.883Z,72.10
2018-04-08T01:20:44.582Z,73.10
2018-04-08T01:22:23.551Z,73.10
2018-04-08T01:24:02.158Z,73.00
2018-04-08T01:25:40.444Z,72.90
2018-04-08T01:27:18.517Z,72.80
2018-04-08T01:28:57.044Z,72.80
2018-04-08T01:30:35.058Z,72.30
2018-04-08T01:32:27.330Z,71.20
2018-04-08T01:34:05.232Z,70.20
2018-04-08T01:35:44.111Z,69.70
2018-04-08T01:37:22.464Z,67.80
2018-04-08T01:39:00.748Z,67.80
2018-04-08T01:40:41.926Z,67.30
2018-04-08T01:42:23.515Z,67.20
2018-04-08T01:44:04.978Z,67.30
2018-04-08T01:45:43.259Z,66.90
2018-04-08T01:47:21.743Z,66.80
2018-04-08T01:48:59.471Z,66.60
2018-04-08T01:50:38.971Z,66.00
2018-04-08T01:52:17.055Z,65.90
2018-04-08T01:53:55.996Z,66.30
2018-04-08T01:55:34.356Z,66.10
2018-04-08T01:57:11.152Z,66.00
2018-04-08T01:58:50.038Z,65.80
2018-04-08T02:00:29.014Z,65.10
2018-04-08T02:02:07.292Z,64.80
2018-04-08T02:03:46.413Z,64.70
2018-04-08T02:05:25.514Z,64.90
2018-04-08T02:07:03.290Z,64.90
2018-04-08T02:08:41.743Z,66.00
2018-04-08T02:10:20.326Z,67.90
2018-04-08T02:11:59.087Z,67.80
2018-04-08T02:13:36.609Z,69.50
2018-04-08T02:15:15.480Z,71.90
2018-04-08T02:16:54.587Z,72.10
2018-04-08T02:18:33.000Z,72.40
2018-04-08T02:20:11.933Z,72.80
2018-04-08T02:21:50.144Z,73.60
2018-04-08T02:23:30.107Z,73.80
2018-04-08T02:25:08.594Z,73.00
2018-04-08T02:26:47.410Z,76.10
2018-04-08T02:28:25.216Z,76.00
2018-04-08T02:30:05.752Z,77.70
2018-04-08T02:31:47.294Z,78.20
2018-04-08T02:33:25.100Z,78.10
2018-04-08T02:35:03.710Z,78.40
2018-04-08T02:36:41.221Z,78.50
2018-04-08T02:38:21.568Z,77.60
2018-04-08T02:39:59.326Z,77.60
2018-04-08T02:41:38.723Z,78.50
2018-04-08T02:43:17.733Z,78.00
2018-04-08T02:44:55.771Z,76.80
2018-04-08T02:46:33.630Z,76.90
2018-04-08T02:48:11.829Z,76.60
2018-04-08T02:49:49.796Z,76.20
2018-04-08T02:51:27.288Z,76.00
2018-04-08T02:53:04.860Z,75.60
2018-04-08T02:54:42.468Z,74.60
2018-04-08T02:56:20.216Z,73.90
2018-04-08T02:57:57.819Z,73.60
2018-04-08T02:59:35.145Z,72.70
2018-04-08T03:01:14.154Z,73.70
2018-04-08T03:02:52.302Z,74.20
2018-04-08T03:04:30.574Z,75.80
2018-04-08T03:06:07.858Z,74.90
2018-04-08T03:07:45.400Z,76.00
2018-04-08T03:09:23.667Z,73.90
2018-04-08T03:11:02.284Z,73.30
2018-04-08T03:12:40.556Z,73.20
2018-04-08T03:14:18.261Z,72.80
2018-04-08T03:15:56.563Z,73.00
2018-04-08T03:17:35.290Z,73.20
2018-04-08T03:19:12.652Z,72.60
2018-04-08T03:20:50.558Z,73.80
2018-04-08T03:22:29.702Z,71.80
2018-04-08T03:24:07.643Z,71.80
2018-04-08T03:25:46.299Z,69.50
2018-04-08T03:27:24.578Z,68.70
2018-04-08T03:29:03.726Z,69.50
2018-04-08T03:30:41.880Z,69.50
2018-04-08T03:32:21.773Z,71.00
2018-04-08T03:33:59.260Z,70.90
2018-04-08T03:35:39.450Z,72.40
2018-04-08T03:37:17.409Z,72.40
2018-04-08T03:38:55.497Z,74.90
2018-04-08T03:40:33.657Z,75.50
2018-04-08T03:42:10.968Z,74.80
2018-04-08T03:43:48.968Z,74.60
2018-04-08T03:45:27.960Z,73.80
2018-04-08T03:47:08.235Z,73.80
2018-04-08T03:48:46.252Z,73.30
2018-04-08T03:50:23.461Z,72.70
2018-04-08T03:52:01.747Z,70.90
2018-04-08T03:53:39.563Z,70.90
2018-04-08T03:55:16.247Z,69.60
2018-04-08T03:56:57.112Z,69.80
2018-04-08T03:58:34.522Z,71.50
2018-04-08T04:00:16.033Z,71.60
2018-04-08T04:01:54.159Z,71.70
2018-04-08T04:03:31.553Z,70.10
2018-04-08T04:05:09.632Z,68.90
2018-04-08T04:06:47.549Z,67.40
2018-04-08T04:08:26.309Z,65.80
2018-04-08T04:10:04.194Z,65.80
2018-04-08T04:11:42.252Z,65.50
2018-04-08T04:13:20.886Z,65.10
2018-04-08T04:14:58.951Z,65.40
2018-04-08T04:16:37.256Z,65.90
2018-04-08T04:18:27.934Z,66.00
2018-04-08T04:21:22.200Z,66.40
2018-04-08T04:25:19.514Z,66.20
2018-04-08T04:26:58.116Z,67.80
2018-04-08T04:28:36.810Z,72.70
2018-04-08T04:30:16.022Z,71.90
2018-04-08T04:31:54.093Z,72.10
2018-04-08T04:33:32.539Z,76.00
2018-04-08T04:35:10.658Z,75.50
2018-04-08T04:36:49.376Z,74.50
2018-04-08T04:38:26.543Z,74.50
2018-04-08T04:40:05.332Z,74.70
2018-04-08T04:43:51.424Z,73.90
2018-04-08T04:45:31.271Z,74.60
2018-04-08T04:47:08.987Z,74.60
2018-04-08T04:48:46.918Z,74.20
2018-04-08T04:50:25.077Z,74.10
2018-04-08T04:52:02.922Z,74.20
2018-04-08T04:53:41.734Z,74.70
2018-04-08T04:55:19.762Z,74.70
2018-04-08T04:56:57.839Z,74.80
2018-04-08T04:58:36.440Z,74.80
2018-04-08T05:00:16.499Z,74.30
2018-04-08T05:01:54.496Z,74.30
2018-04-08T05:03:32.515Z,73.90
2018-04-08T05:05:11.530Z,71.00
2018-04-08T05:06:49.579Z,70.30
2018-04-08T05:08:26.814Z,70.30
2018-04-08T05:10:04.788Z,70.10
2018-04-08T05:11:45.140Z,70.00
2018-04-08T05:13:23.010Z,70.00
2018-04-08T05:15:00.359Z,70.40
2018-04-08T05:16:40.722Z,70.60
2018-04-08T05:18:19.488Z,70.00
2018-04-08T05:19:57.404Z,69.70
2018-04-08T05:21:37.331Z,68.50
2018-04-08T05:23:15.234Z,68.90
2018-04-08T05:24:53.071Z,68.10
2018-04-08T05:26:30.905Z,67.30
2018-04-08T05:28:08.389Z,68.50
2018-04-08T05:29:46.385Z,68.90
2018-04-08T05:31:24.304Z,70.60
2018-04-08T05:33:01.617Z,71.00
2018-04-08T05:34:42.049Z,71.20
2018-04-08T05:36:20.812Z,70.70
2018-04-08T05:37:59.054Z,70.60
2018-04-08T05:39:36.342Z,70.80
2018-04-08T05:41:14.370Z,71.40
2018-04-08T05:42:52.985Z,73.50
2018-04-08T05:44:31.154Z,73.40
2018-04-08T05:46:10.045Z,75.40
2018-04-08T05:47:48.351Z,75.90
2018-04-08T05:49:28.340Z,75.90
2018-04-08T05:51:05.758Z,76.10
2018-04-08T05:52:43.197Z,76.40
2018-04-08T05:54:21.376Z,74.40
2018-04-08T05:55:59.651Z,75.10
2018-04-08T05:57:38.181Z,72.60
2018-04-08T05:59:16.297Z,71.80
2018-04-08T06:00:54.328Z,72.60
2018-04-08T06:02:32.620Z,74.20
2018-04-08T06:04:10.424Z,73.90
2018-04-08T06:05:48.306Z,75.60
2018-04-08T06:07:25.686Z,76.40
2018-04-08T06:09:03.160Z,77.80
2018-04-08T06:10:41.878Z,79.10
2018-04-08T06:12:19.901Z,78.10
2018-04-08T06:13:58.734Z,77.10
2018-04-08T06:15:36.827Z,76.20
2018-04-08T06:17:14.569Z,73.80
2018-04-08T06:18:52.586Z,73.80
2018-04-08T06:20:32.485Z,72.90
2018-04-08T06:22:10.777Z,72.80
2018-04-08T06:23:48.219Z,72.80
2018-04-08T06:25:28.034Z,70.40
2018-04-08T06:27:06.313Z,70.70
2018-04-08T06:28:44.899Z,69.10
2018-04-08T06:30:23.471Z,69.80
2018-04-08T06:32:01.870Z,70.30
2018-04-08T06:33:39.471Z,70.30
2018-04-08T06:35:17.843Z,72.00
2018-04-08T06:36:56.310Z,73.70
2018-04-08T06:38:36.005Z,74.90
2018-04-08T06:40:14.013Z,74.80
2018-04-08T06:41:52.856Z,75.50
2018-04-08T06:43:32.983Z,76.30
2018-04-08T06:45:10.808Z,76.30
2018-04-08T06:46:50.390Z,74.90
2018-04-08T06:48:29.295Z,74.70
2018-04-08T06:50:07.624Z,75.60
2018-04-08T06:51:46.488Z,74.20
2018-04-08T06:53:24.219Z,73.30
2018-04-08T06:55:03.936Z,73.30
2018-04-08T06:56:42.195Z,73.30
2018-04-08T06:58:20.931Z,73.60
2018-04-08T06:59:59.509Z,73.80
2018-04-08T07:01:38.717Z,73.60
2018-04-08T07:03:17.484Z,73.60
2018-04-08T07:04:56.365Z,71.80
2018-04-08T07:06:36.613Z,72.60
2018-04-08T07:08:14.862Z,71.40
2018-04-08T07:09:53.199Z,72.20
2018-04-08T07:11:31.197Z,71.60
2018-04-08T07:13:09.504Z,70.80
2018-04-08T07:14:49.126Z,69.30
2018-04-08T07:16:28.110Z,66.20
2018-04-08T07:18:07.114Z,66.20
2018-04-08T07:19:45.529Z,64.60
2018-04-08T07:21:24.953Z,63.00
2018-04-08T07:23:03.701Z,62.20
2018-04-08T07:24:43.304Z,62.80
2018-04-08T07:26:21.982Z,62.90
2018-04-08T07:28:00.666Z,64.20
2018-04-08T07:29:40.706Z,64.90
2018-04-08T07:31:19.687Z,65.50
2018-04-08T07:32:58.411Z,66.10
2018-04-08T07:34:39.254Z,66.70
2018-04-08T07:37:48.577Z,66.10
2018-04-08T07:39:27.393Z,66.30
2018-04-08T07:41:06.414Z,65.90
2018-04-08T07:42:47.289Z,65.70
2018-04-08T07:44:26.123Z,66.60
2018-04-08T07:46:04.208Z,66.70
2018-04-08T07:47:44.204Z,65.90
2018-04-08T07:49:23.797Z,64.90
2018-04-08T07:51:03.689Z,62.60
2018-04-08T07:52:43.100Z,61.80
2018-04-08T07:54:22.396Z,61.90
2018-04-08T07:56:01.025Z,63.10
2018-04-08T07:57:41.367Z,62.30
2018-04-08T07:59:20.427Z,62.90
2018-04-08T08:01:01.012Z,61.50
2018-04-08T08:02:41.399Z,61.10
2018-04-08T08:04:22.245Z,57.70
2018-04-08T08:06:01.408Z,57.70
2018-04-08T08:07:41.527Z,55.60
2018-04-08T08:09:20.435Z,55.60
2018-04-08T08:10:59.696Z,55.10
2018-04-08T08:12:39.375Z,53.60
2018-04-08T08:14:19.824Z,53.30
2018-04-08T08:15:59.852Z,53.30
2018-04-08T08:17:38.983Z,52.90
2018-04-08T08:19:17.103Z,52.50
2018-04-08T08:20:57.606Z,51.30
2018-04-08T08:22:37.141Z,51.30
2018-04-08T08:24:16.009Z,51.80
2018-04-08T08:25:54.838Z,52.00
2018-04-08T08:27:36.731Z,51.60
2018-04-08T08:29:15.126Z,51.70
2018-04-08T08:30:53.051Z,51.60
2018-04-08T08:32:31.351Z,51.80
2018-04-08T08:34:10.690Z,52.00
2018-04-08T08:35:50.874Z,51.50
2018-04-08T08:37:30.909Z,51.50
2018-04-08T08:39:10.331Z,51.00
2018-04-08T08:40:49.923Z,51.30
2018-04-08T08:42:29.872Z,51.00
2018-04-08T08:44:08.320Z,50.90
2018-04-08T08:45:48.335Z,50.30
2018-04-08T08:47:27.139Z,50.30
2018-04-08T08:49:06.320Z,50.80
2018-04-08T08:50:45.281Z,51.80
2018-04-08T08:52:23.868Z,50.50
2018-04-08T08:54:03.099Z,50.40
2018-04-08T08:55:42.713Z,49.30
2018-04-08T08:57:22.189Z,49.50
2018-04-08T08:59:01.306Z,49.70
2018-04-08T09:00:40.917Z,50.00
2018-04-08T09:02:20.788Z,49.00
2018-04-08T09:03:59.853Z,49.00
2018-04-08T09:05:40.265Z,48.60
2018-04-08T09:07:19.142Z,48.70
2018-04-08T09:08:58.730Z,49.00
2018-04-08T09:10:37.619Z,47.30
2018-04-08T09:12:17.067Z,48.40
2018-04-08T09:13:55.654Z,47.50
2018-04-08T09:15:35.121Z,47.30
2018-04-08T09:17:14.442Z,46.00
2018-04-08T09:18:54.935Z,45.40
2018-04-08T09:20:35.316Z,45.00
2018-04-08T09:22:17.003Z,44.40
2018-04-08T09:23:57.192Z,44.40
2018-04-08T09:25:37.398Z,43.80
2018-04-08T09:27:16.823Z,45.20
2018-04-08T09:28:56.258Z,45.30
2018-04-08T09:30:35.725Z,43.80
2018-04-08T09:32:15.086Z,43.90
2018-04-08T09:33:54.230Z,43.70
2018-04-08T09:35:33.272Z,43.00
2018-04-08T09:37:11.726Z,42.90
2018-04-08T09:38:50.532Z,42.90
2018-04-08T09:40:29.479Z,42.90
2018-04-08T09:42:09.560Z,43.10
2018-04-08T09:43:49.132Z,43.10
2018-04-08T09:45:28.203Z,42.60
2018-04-08T09:47:05.385Z,42.30
2018-04-08T09:48:43.957Z,42.90
2018-04-08T09:50:21.259Z,42.50
2018-04-08T09:52:00.742Z,42.40
2018-04-08T09:53:39.957Z,43.00
2018-04-08T09:55:18.523Z,42.70
2018-04-08T09:57:00.736Z,42.70
2018-04-08T09:58:39.857Z,42.60
2018-04-08T10:02:11.869Z,42.20
2018-04-08T10:03:53.086Z,43.30
2018-04-08T10:05:31.907Z,43.30
2018-04-08T10:07:11.029Z,42.70
2018-04-08T10:08:51.820Z,42.20
2018-04-08T10:10:33.723Z,41.70
2018-04-08T10:12:14.066Z,42.20
2018-04-08T10:13:54.109Z,42.60
2018-04-08T10:15:34.664Z,41.80
2018-04-08T10:17:15.307Z,41.80
2018-04-08T10:18:56.612Z,42.40
2018-04-08T10:20:34.653Z,42.00
2018-04-08T10:22:13.684Z,41.00
2018-04-08T10:23:56.007Z,41.10
2018-04-08T10:25:36.333Z,41.50
2018-04-08T10:27:16.285Z,39.50
2018-04-08T10:28:57.671Z,40.20
2018-04-08T10:30:39.053Z,41.00
2018-04-08T10:32:18.089Z,40.50
2018-04-08T10:34:01.648Z,39.60
2018-04-08T10:35:42.303Z,39.80
2018-04-08T10:37:25.088Z,40.40
2018-04-08T10:39:08.103Z,42.00
2018-04-08T10:40:49.102Z,41.80
2018-04-08T10:42:30.662Z,41.80
2018-04-08T10:44:14.284Z,41.60
2018-04-08T10:45:56.711Z,41.50
2018-04-08T10:47:38.811Z,42.40
2018-04-08T10:49:20.111Z,42.40
2018-04-08T10:51:01.287Z,43.50
2018-04-08T10:52:40.664Z,44.20
2018-04-08T10:54:23.149Z,44.70
2018-04-08T10:56:03.621Z,45.20
2018-04-08T10:57:43.013Z,45.20
2018-04-08T10:59:24.952Z,45.20
2018-04-08T11:01:06.973Z,45.00
